Time;durP1;ratioP1;P1;durP2;ratioP2;P2;SDS_P1;SDS_P2;PMS_P1;PMS_P2;Temp;Humidity;BMP_temperature;BMP_pressure;BME280_temperature;BME280_humidity;BME280_pressure;Samples;Min_cycle;Max_cycle;Signal;HPM_P1;HPM_P2
2021/03/02 00:00:11;;;;;;;6.30;2.80;;;4.00;99.90;;;;;;4990926;28;20262;-91
2021/03/02 00:02:41;;;;;;;3.90;2.47;;;4.00;99.90;;;;;;5000542;28;20211;-90
2021/03/02 00:05:11;;;;;;;2.97;1.87;;;3.90;99.90;;;;;;4966937;28;20266;-91
2021/03/02 00:07:38;;;;;;;2.57;2.20;;;3.90;99.90;;;;;;4961024;28;20212;-89
2021/03/02 00:10:08;;;;;;;2.40;1.87;;;3.90;99.90;;;;;;4993786;28;20195;-91
2021/03/02 00:12:37;;;;;;;4.63;1.80;;;3.90;99.90;;;;;;5006620;28;20223;-91
2021/03/02 00:15:05;;;;;;;3.70;3.10;;;3.90;99.90;;;;;;5008973;28;20219;-92
2021/03/02 00:17:37;;;;;;;3.70;2.47;;;3.90;99.90;;;;;;4992720;28;20233;-90
2021/03/02 00:20:32;;;;;;;3.03;2.83;;;3.90;99.90;;;;;;5006515;28;20723;-90
2021/03/02 00:23:08;;;;;;;1.63;1.60;;;3.80;99.90;;;;;;4984731;28;20219;-90
2021/03/02 00:25:37;;;;;;;3.83;2.17;;;4.00;99.90;;;;;;5003446;28;21097;-90
2021/03/02 00:28:06;;;;;;;4.13;3.73;;;4.00;99.90;;;;;;5007637;28;20239;-90
2021/03/02 00:30:37;;;;;;;2.03;1.93;;;4.00;99.90;;;;;;4985407;28;20219;-91
2021/03/02 00:33:07;;;;;;;4.03;2.77;;;4.00;99.90;;;;;;4985381;28;20219;-89
2021/03/02 00:35:33;;;;;;;4.93;3.20;;;4.00;99.90;;;;;;4994666;28;20224;-92
2021/03/02 00:37:59;;;;;;;4.53;4.13;;;4.00;99.90;;;;;;4996237;28;20353;-90
2021/03/02 00:40:25;;;;;;;6.30;3.53;;;4.00;99.90;;;;;;4991726;28;20744;-90
2021/03/02 00:42:51;;;;;;;4.10;3.77;;;4.00;99.90;;;;;;4989418;28;20207;-90
2021/03/02 00:45:18;;;;;;;3.03;2.73;;;4.00;99.90;;;;;;4989107;28;20214;-91
2021/03/02 00:47:44;;;;;;;5.17;4.63;;;4.10;99.90;;;;;;4974036;28;20219;-90
2021/03/02 00:50:11;;;;;;;4.77;4.43;;;4.10;99.90;;;;;;4969781;28;20577;-91
2021/03/02 00:52:37;;;;;;;2.33;2.07;;;4.20;99.90;;;;;;4986370;28;21064;-90
2021/03/02 00:55:06;;;;;;;8.10;6.00;;;4.10;99.90;;;;;;5006748;28;20187;-90
2021/03/02 00:57:31;;;;;;;6.40;3.47;;;4.20;99.90;;;;;;5000800;28;20223;-90
2021/03/02 00:59:57;;;;;;;15.60;4.57;;;4.20;99.90;;;;;;4980801;28;20994;-90
2021/03/02 01:02:23;;;;;;;7.63;5.77;;;4.20;99.90;;;;;;4979086;28;20242;-91
2021/03/02 01:04:49;;;;;;;5.47;5.03;;;4.20;99.90;;;;;;4986169;28;20384;-91
2021/03/02 01:07:14;;;;;;;5.50;5.00;;;4.10;99.90;;;;;;4984113;28;20191;-90
2021/03/02 01:09:40;;;;;;;8.67;3.40;;;4.10;99.90;;;;;;4968660;28;20298;-91
2021/03/02 01:12:07;;;;;;;3.90;3.60;;;4.00;99.90;;;;;;4978768;28;20285;-91
2021/03/02 01:14:33;;;;;;;3.47;3.07;;;4.00;99.90;;;;;;4972574;28;20207;-91
2021/03/02 01:16:58;;;;;;;4.97;3.93;;;4.00;99.90;;;;;;4966762;28;21180;-91
2021/03/02 01:19:24;;;;;;;3.10;2.80;;;3.90;99.90;;;;;;4981439;28;20667;-91
2021/03/02 01:21:50;;;;;;;5.60;2.57;;;4.00;99.90;;;;;;4995334;28;21203;-90
2021/03/02 01:24:17;;;;;;;1.63;1.37;;;4.00;99.90;;;;;;4977911;28;20206;-91
2021/03/02 01:26:42;;;;;;;7.17;4.23;;;4.10;99.90;;;;;;4999383;28;20210;-91
2021/03/02 01:29:08;;;;;;;5.70;5.23;;;4.10;99.90;;;;;;4973421;28;20237;-91
2021/03/02 01:31:34;;;;;;;4.03;3.77;;;4.00;99.90;;;;;;4979439;28;20202;-90
2021/03/02 01:34:00;;;;;;;5.97;4.27;;;4.00;99.90;;;;;;4981038;28;20235;-91
2021/03/02 01:36:26;;;;;;;5.47;4.87;;;4.00;99.90;;;;;;4988990;28;20224;-91
2021/03/02 01:38:52;;;;;;;4.73;4.30;;;4.00;99.90;;;;;;4978027;28;20230;-91
2021/03/02 01:41:18;;;;;;;41.37;3.87;;;4.00;99.90;;;;;;4994880;28;20215;-91
2021/03/02 01:43:44;;;;;;;5.57;2.30;;;4.00;99.90;;;;;;4978157;28;20219;-91
2021/03/02 01:46:10;;;;;;;3.97;2.93;;;3.90;99.90;;;;;;4970701;28;20225;-91
2021/03/02 01:48:37;;;;;;;6.37;4.47;;;4.00;99.90;;;;;;4982775;28;20265;-89
2021/03/02 01:51:04;;;;;;;6.17;5.03;;;4.00;99.90;;;;;;5015793;28;20777;-91
2021/03/02 01:53:31;;;;;;;4.03;3.63;;;4.00;99.90;;;;;;5002565;28;20235;-88
2021/03/02 01:55:58;;;;;;;2.90;2.30;;;4.00;99.90;;;;;;4984367;28;20229;-91
2021/03/02 01:58:25;;;;;;;5.30;4.63;;;3.90;99.90;;;;;;4989746;28;20230;-90
2021/03/02 02:00:54;;;;;;;8.77;4.80;;;3.80;99.90;;;;;;5013114;28;20182;-91
2021/03/02 02:03:27;;;;;;;4.47;4.07;;;3.90;99.90;;;;;;5003488;28;20580;-91
2021/03/02 02:06:05;;;;;;;19.57;5.80;;;3.90;99.90;;;;;;5005727;28;21028;-90
2021/03/02 02:08:51;;;;;;;7.47;5.47;;;3.90;99.90;;;;;;5026352;28;20234;-90
2021/03/02 02:11:32;;;;;;;10.47;5.13;;;3.90;99.90;;;;;;5005940;28;20214;-91
2021/03/02 02:14:10;;;;;;;8.93;6.53;;;4.00;99.90;;;;;;5008613;28;20225;-90
2021/03/02 02:16:38;;;;;;;13.00;6.67;;;4.00;99.90;;;;;;5009850;28;20891;-90
2021/03/02 02:19:08;;;;;;;9.40;4.03;;;4.10;99.90;;;;;;5028360;28;20194;-91
2021/03/02 02:22:02;;;;;;;9.50;5.47;;;4.10;99.90;;;;;;5000683;28;20684;-92
2021/03/02 02:24:36;;;;;;;5.97;4.70;;;4.00;99.90;;;;;;4997642;28;20627;-91
2021/03/02 02:27:02;;;;;;;13.00;4.23;;;3.80;99.90;;;;;;5016580;28;20341;-90
2021/03/02 02:29:33;;;;;;;11.10;5.67;;;3.80;99.90;;;;;;5019467;28;20226;-90
2021/03/02 02:32:02;;;;;;;3.80;2.80;;;3.80;99.90;;;;;;4990448;28;20223;-90
2021/03/02 02:34:32;;;;;;;10.30;4.70;;;3.80;99.90;;;;;;4983473;28;20226;-90
2021/03/02 02:37:01;;;;;;;13.53;5.00;;;3.80;99.90;;;;;;4974568;28;20236;-91
2021/03/02 02:39:29;;;;;;;11.83;6.93;;;3.80;99.90;;;;;;5007956;28;20354;-91
2021/03/02 02:41:55;;;;;;;8.63;3.13;;;3.90;99.90;;;;;;5001339;28;20288;-91
2021/03/02 02:44:22;;;;;;;7.53;6.50;;;3.90;99.90;;;;;;4972088;28;20214;-90
2021/03/02 02:46:50;;;;;;;10.63;7.13;;;3.90;99.90;;;;;;4992835;28;20229;-91
2021/03/02 02:49:16;;;;;;;4.70;4.40;;;3.90;99.90;;;;;;5010601;28;20426;-90
2021/03/02 02:51:43;;;;;;;9.77;6.40;;;4.00;99.90;;;;;;5006528;28;20225;-91
2021/03/02 02:54:10;;;;;;;8.20;4.13;;;3.90;99.90;;;;;;5001035;28;20276;-90
2021/03/02 02:56:38;;;;;;;9.10;6.57;;;4.00;99.90;;;;;;4991137;28;20226;-90
2021/03/02 02:59:27;;;;;;;8.47;6.67;;;4.00;99.90;;;;;;5016518;28;20243;-90
2021/03/02 03:01:56;;;;;;;4.07;3.77;;;4.00;99.90;;;;;;5014320;28;20311;-91
2021/03/02 03:04:27;;;;;;;10.57;6.47;;;4.00;99.90;;;;;;5022273;28;20713;-91
2021/03/02 03:06:57;;;;;;;10.83;6.87;;;4.00;99.90;;;;;;5021669;28;20201;-90
2021/03/02 03:09:23;;;;;;;10.60;5.63;;;4.00;99.90;;;;;;4999841;28;20793;-90
2021/03/02 03:12:01;;;;;;;9.03;6.00;;;4.00;99.90;;;;;;4985394;28;20735;-90
2021/03/02 03:14:30;;;;;;;14.30;6.23;;;4.00;99.90;;;;;;5020201;28;20236;-90
2021/03/02 03:16:57;;;;;;;16.23;8.97;;;4.00;99.90;;;;;;5018644;28;20227;-90
2021/03/02 03:19:27;;;;;;;9.40;6.07;;;4.00;99.90;;;;;;5021698;28;20190;-90
2021/03/02 03:21:53;;;;;;;5.20;4.43;;;4.00;99.90;;;;;;5004662;28;20667;-90
2021/03/02 03:24:21;;;;;;;10.20;6.13;;;4.00;99.90;;;;;;5000140;28;20349;-90
2021/03/02 03:26:48;;;;;;;15.40;7.73;;;3.90;99.90;;;;;;4993665;28;20233;-92
2021/03/02 03:29:15;;;;;;;5.27;3.27;;;4.00;99.90;;;;;;4998326;28;20272;-91
2021/03/02 03:31:44;;;;;;;7.57;6.47;;;3.90;99.90;;;;;;5010297;28;20229;-91
2021/03/02 03:34:09;;;;;;;9.63;4.37;;;3.90;99.90;;;;;;4987112;28;20200;-90
2021/03/02 03:36:36;;;;;;;12.57;6.17;;;3.90;99.90;;;;;;4977008;28;20215;-92
2021/03/02 03:39:03;;;;;;;7.00;6.13;;;3.90;99.90;;;;;;5002548;28;20237;-89
2021/03/02 03:41:29;;;;;;;4.23;3.93;;;3.90;99.90;;;;;;5011526;28;20303;-90
2021/03/02 03:43:55;;;;;;;5.67;4.00;;;3.90;99.90;;;;;;4998804;28;20223;-91
2021/03/02 03:46:20;;;;;;;16.73;3.73;;;3.90;99.90;;;;;;5009871;28;20243;-91
2021/03/02 03:48:46;;;;;;;11.17;4.83;;;3.90;99.90;;;;;;4975969;28;20238;-90
2021/03/02 03:51:13;;;;;;;9.53;5.30;;;3.90;99.90;;;;;;4996933;28;20463;-90
2021/03/02 03:53:40;;;;;;;7.17;3.83;;;3.90;99.90;;;;;;4993329;28;20237;-89
2021/03/02 03:56:06;;;;;;;3.47;3.20;;;3.80;99.90;;;;;;5017992;28;20223;-90
2021/03/02 03:58:33;;;;;;;15.27;8.27;;;3.80;99.90;;;;;;4984515;28;20198;-89
2021/03/02 04:01:02;;;;;;;5.23;3.67;;;3.90;99.90;;;;;;4999385;28;20195;-92
2021/03/02 04:03:31;;;;;;;6.47;4.77;;;3.90;99.90;;;;;;5029915;28;20275;-90
2021/03/02 04:06:00;;;;;;;4.80;2.90;;;3.80;99.90;;;;;;5022529;28;20219;-93
2021/03/02 04:08:26;;;;;;;9.03;4.83;;;3.70;99.90;;;;;;5005709;28;20258;-91
2021/03/02 04:10:52;;;;;;;4.07;3.87;;;3.60;99.90;;;;;;4973794;28;20487;-92
2021/03/02 04:13:18;;;;;;;3.00;2.70;;;3.60;99.90;;;;;;4994996;28;20657;-90
2021/03/02 04:15:45;;;;;;;4.30;3.90;;;3.70;99.90;;;;;;4994448;28;20210;-90
2021/03/02 04:18:13;;;;;;;10.07;3.90;;;3.60;99.90;;;;;;5009420;28;20229;-91
2021/03/02 04:20:40;;;;;;;3.00;2.70;;;3.60;99.90;;;;;;5028082;28;20214;-91
2021/03/02 04:23:06;;;;;;;8.17;5.73;;;3.70;99.90;;;;;;5030708;28;20264;-91
2021/03/02 04:25:32;;;;;;;9.43;5.97;;;3.70;99.90;;;;;;5029174;28;20591;-90
2021/03/02 04:27:59;;;;;;;6.07;4.73;;;3.70;99.90;;;;;;5032405;28;20308;-90
2021/03/02 04:30:25;;;;;;;4.53;3.90;;;3.80;99.90;;;;;;5012100;28;20301;-90
2021/03/02 04:32:51;;;;;;;7.23;5.17;;;3.80;99.90;;;;;;5013180;28;20218;-91
2021/03/02 04:35:18;;;;;;;5.60;4.83;;;3.80;99.90;;;;;;5013647;28;20216;-90
2021/03/02 04:37:44;;;;;;;8.30;4.57;;;3.70;99.90;;;;;;5008995;28;20218;-91
2021/03/02 04:40:10;;;;;;;8.87;5.57;;;3.70;99.90;;;;;;4995847;28;20195;-91
2021/03/02 04:42:36;;;;;;;6.63;6.10;;;3.80;99.90;;;;;;4993493;28;20217;-90
2021/03/02 04:45:04;;;;;;;7.53;6.67;;;3.80;99.90;;;;;;4997068;28;20309;-90
2021/03/02 04:47:29;;;;;;;5.57;5.03;;;3.80;99.90;;;;;;4987648;28;20241;-91
2021/03/02 04:49:55;;;;;;;13.00;10.63;;;3.80;99.90;;;;;;4989447;28;20231;-91
2021/03/02 04:52:21;;;;;;;2.50;2.30;;;3.70;99.90;;;;;;4997601;28;20215;-92
2021/03/02 04:54:47;;;;;;;1.57;1.47;;;3.70;99.90;;;;;;4955562;28;20298;-90
2021/03/02 04:57:12;;;;;;;12.60;5.43;;;3.60;99.90;;;;;;4956326;28;20230;-90
2021/03/02 04:59:38;;;;;;;5.40;3.83;;;3.60;99.90;;;;;;4971267;28;20220;-90
2021/03/02 05:02:04;;;;;;;8.00;4.00;;;3.60;99.90;;;;;;4977835;28;20209;-91
2021/03/02 05:04:30;;;;;;;22.97;5.83;;;3.60;99.90;;;;;;5005409;28;20195;-90
2021/03/02 05:06:56;;;;;;;4.83;4.47;;;3.60;99.90;;;;;;5009116;28;20192;-90
2021/03/02 05:09:21;;;;;;;9.50;4.63;;;3.60;99.90;;;;;;5002230;28;20305;-92
2021/03/02 05:11:47;;;;;;;10.30;4.70;;;3.60;99.90;;;;;;4983183;28;20228;-91
2021/03/02 05:14:13;;;;;;;7.60;4.33;;;3.60;99.90;;;;;;4976008;28;20211;-91
2021/03/02 05:16:39;;;;;;;4.80;4.50;;;3.60;99.90;;;;;;4977076;28;20207;-91
2021/03/02 05:19:05;;;;;;;10.13;6.90;;;3.60;99.90;;;;;;4969626;28;20196;-91
2021/03/02 05:21:30;;;;;;;2.73;2.53;;;3.60;99.90;;;;;;4972466;28;20219;-91
2021/03/02 05:23:56;;;;;;;6.50;5.80;;;3.50;99.90;;;;;;4970620;28;21213;-90
2021/03/02 05:26:22;;;;;;;8.40;4.37;;;3.50;99.90;;;;;;4980420;28;20219;-92
2021/03/02 05:28:51;;;;;;;7.60;5.37;;;3.50;99.90;;;;;;4961470;28;20314;-90
2021/03/02 05:31:17;;;;;;;7.23;6.60;;;3.60;99.90;;;;;;4988774;28;21263;-89
2021/03/02 05:33:43;;;;;;;6.10;3.90;;;3.70;99.90;;;;;;4969187;28;20298;-89
2021/03/02 05:36:08;;;;;;;15.47;4.57;;;3.70;99.90;;;;;;4951136;28;20227;-90
2021/03/02 05:38:37;;;;;;;8.10;5.17;;;3.60;99.90;;;;;;4991315;28;20566;-91
2021/03/02 05:41:04;;;;;;;4.80;4.17;;;3.60;99.90;;;;;;4990289;28;20224;-91
2021/03/02 05:43:30;;;;;;;9.07;2.57;;;3.60;99.90;;;;;;4943189;28;20222;-89
2021/03/02 05:45:56;;;;;;;4.03;3.47;;;3.50;99.90;;;;;;4965164;28;20203;-91
2021/03/02 05:48:26;;;;;;;7.27;5.03;;;3.50;99.90;;;;;;4981378;28;20261;-89
2021/03/02 05:50:55;;;;;;;8.23;5.70;;;3.50;99.90;;;;;;5000297;28;20254;-90
2021/03/02 05:53:22;;;;;;;12.67;5.63;;;3.40;99.90;;;;;;5008039;28;20272;-92
2021/03/02 05:55:48;;;;;;;8.57;5.13;;;3.50;99.90;;;;;;5009564;28;20698;-91
2021/03/02 05:58:15;;;;;;;3.97;2.57;;;3.50;99.90;;;;;;4997023;28;20188;-92
2021/03/02 06:00:41;;;;;;;5.73;3.50;;;3.40;99.90;;;;;;5007009;28;20217;-92
2021/03/02 06:03:07;;;;;;;7.97;5.87;;;3.40;99.90;;;;;;4979755;28;20225;-92
2021/03/02 06:05:34;;;;;;;8.47;5.03;;;3.30;99.90;;;;;;4989794;28;20338;-90
2021/03/02 06:08:00;;;;;;;6.53;4.87;;;3.30;99.90;;;;;;5000082;28;20269;-91
2021/03/02 06:10:33;;;;;;;8.43;7.83;;;3.30;99.90;;;;;;4972143;28;20187;-90
2021/03/02 06:13:00;;;;;;;11.63;6.17;;;3.40;99.90;;;;;;4985080;28;20219;-91
2021/03/02 06:15:28;;;;;;;8.03;7.23;;;3.50;99.90;;;;;;4999240;28;20230;-89
2021/03/02 06:18:12;;;;;;;6.63;5.53;;;3.50;99.90;;;;;;5005105;28;20237;-90
2021/03/02 06:20:40;;;;;;;4.93;4.53;;;3.40;99.90;;;;;;5027044;28;20230;-90
2021/03/02 06:23:30;;;;;;;3.60;3.00;;;3.40;99.90;;;;;;5009185;28;20377;-89
2021/03/02 06:26:08;;;;;;;9.53;6.87;;;3.40;99.90;;;;;;5026805;28;20237;-91
2021/03/02 06:28:44;;;;;;;9.13;4.97;;;3.40;99.90;;;;;;5011958;28;20215;-87
2021/03/02 06:31:30;;;;;;;7.90;6.27;;;3.50;99.90;;;;;;5010411;28;20256;-90
2021/03/02 06:34:09;;;;;;;8.67;4.00;;;3.50;99.90;;;;;;4999263;28;20231;-88
2021/03/02 06:36:35;;;;;;;10.73;4.33;;;3.40;99.90;;;;;;5009486;28;20210;-88
2021/03/02 06:39:41;;;;;;;26.00;4.37;;;3.30;99.90;;;;;;5011942;28;20279;-89
2021/03/02 06:42:23;;;;;;;3.20;2.63;;;3.30;99.90;;;;;;4973334;28;20329;-89
2021/03/02 06:44:53;;;;;;;17.33;5.23;;;3.30;99.90;;;;;;5013064;28;20214;-87
2021/03/02 06:47:34;;;;;;;5.97;5.07;;;3.40;99.90;;;;;;5009390;28;20222;-88
2021/03/02 06:50:01;;;;;;;5.63;5.10;;;3.40;99.90;;;;;;5002265;28;20483;-89
2021/03/02 06:52:37;;;;;;;15.13;7.60;;;3.40;99.90;;;;;;4998601;28;20270;-88
2021/03/02 06:55:16;;;;;;;3.77;3.47;;;3.40;99.90;;;;;;4978168;28;20171;-89
2021/03/02 06:57:43;;;;;;;16.47;7.57;;;3.30;99.90;;;;;;4984690;28;20232;-90
2021/03/02 07:00:09;;;;;;;3.93;3.40;;;3.20;99.90;;;;;;4987638;28;20722;-92
2021/03/02 07:02:43;;;;;;;10.47;6.23;;;3.20;99.90;;;;;;4981319;28;20302;-90
2021/03/02 07:05:12;;;;;;;9.40;4.90;;;3.20;99.90;;;;;;4985815;28;20218;-90
2021/03/02 07:07:40;;;;;;;4.93;4.47;;;3.30;99.90;;;;;;5009496;28;20214;-90
2021/03/02 07:10:08;;;;;;;9.90;5.60;;;3.30;99.90;;;;;;4976884;28;20196;-93
2021/03/02 07:12:37;;;;;;;10.13;4.57;;;3.40;99.90;;;;;;4991959;28;20302;-92
2021/03/02 07:15:17;;;;;;;6.30;5.60;;;3.40;99.90;;;;;;4988004;28;20215;-89
2021/03/02 07:17:44;;;;;;;8.00;2.93;;;3.40;99.90;;;;;;4965095;28;20223;-94
2021/03/02 07:20:12;;;;;;;6.03;4.67;;;3.40;99.90;;;;;;4986632;28;20540;-91
2021/03/02 07:22:40;;;;;;;7.10;5.77;;;3.40;99.90;;;;;;4970541;28;20222;-88
2021/03/02 07:25:09;;;;;;;7.60;6.43;;;3.40;99.90;;;;;;4985449;28;20310;-88
2021/03/02 07:27:41;;;;;;;3.53;3.27;;;3.40;99.90;;;;;;5003133;28;20803;-89
2021/03/02 07:30:12;;;;;;;6.20;4.90;;;3.30;99.90;;;;;;5003095;28;20251;-92
2021/03/02 07:32:39;;;;;;;9.70;7.03;;;3.30;99.90;;;;;;4984763;28;20223;-92
2021/03/02 07:35:08;;;;;;;21.93;7.80;;;3.30;99.90;;;;;;4985184;28;20266;-92
2021/03/02 07:37:34;;;;;;;3.53;3.17;;;3.30;99.90;;;;;;4984746;28;20183;-93
2021/03/02 07:40:08;;;;;;;7.50;5.03;;;3.20;99.90;;;;;;4987360;28;20195;-92
2021/03/02 07:42:35;;;;;;;6.10;5.37;;;3.30;99.90;;;;;;4985107;28;20210;-93
2021/03/02 07:45:04;;;;;;;6.03;3.53;;;3.30;99.90;;;;;;4984494;28;20329;-91
2021/03/02 07:47:54;;;;;;;4.90;4.50;;;3.20;99.90;;;;;;4997812;28;20723;-92
2021/03/02 07:50:25;;;;;;;6.37;5.27;;;3.20;99.90;;;;;;4987851;28;20241;-91
2021/03/02 07:53:23;;;;;;;4.50;3.77;;;3.30;99.90;;;;;;5021818;28;20237;-93
2021/03/02 07:56:12;;;;;;;6.53;4.33;;;3.30;99.90;;;;;;5005172;28;20242;-92
2021/03/02 07:58:38;;;;;;;10.63;4.13;;;3.40;99.90;;;;;;5006269;28;20199;-90
2021/03/02 08:01:18;;;;;;;2.77;2.57;;;3.30;99.90;;;;;;5013805;28;20187;-90
2021/03/02 08:03:44;;;;;;;4.83;4.63;;;3.30;99.90;;;;;;5005172;28;20305;-89
2021/03/02 08:06:30;;;;;;;4.90;4.60;;;3.20;99.90;;;;;;5003696;28;20279;-89
2021/03/02 08:08:56;;;;;;;6.40;2.77;;;3.30;99.90;;;;;;4997174;28;20248;-89
2021/03/02 08:11:35;;;;;;;13.17;5.97;;;3.30;99.90;;;;;;4991522;28;20221;-89
2021/03/02 08:14:22;;;;;;;13.50;3.47;;;3.30;99.90;;;;;;5009609;28;20214;-89
2021/03/02 08:17:03;;;;;;;6.30;4.43;;;3.50;99.90;;;;;;5021138;28;20350;-89
2021/03/02 08:20:05;;;;;;;3.83;3.53;;;3.50;99.90;;;;;;5016716;28;20534;-90
2021/03/02 08:22:33;;;;;;;13.83;8.80;;;3.50;99.90;;;;;;5003496;28;20207;-90
2021/03/02 08:25:02;;;;;;;7.70;5.87;;;3.50;99.90;;;;;;5011964;28;20252;-90
2021/03/02 08:27:46;;;;;;;8.57;4.87;;;3.50;99.90;;;;;;4992192;28;20211;-89
2021/03/02 08:30:24;;;;;;;7.63;3.40;;;3.60;99.90;;;;;;5008808;28;20278;-89
2021/03/02 08:32:53;;;;;;;8.67;5.23;;;3.70;99.90;;;;;;5013230;28;20261;-89
2021/03/02 08:35:26;;;;;;;6.80;4.97;;;3.70;99.90;;;;;;5020730;28;20218;-89
2021/03/02 08:37:55;;;;;;;11.20;4.67;;;3.80;99.90;;;;;;5019830;28;20230;-91
2021/03/02 08:40:30;;;;;;;7.70;4.67;;;3.90;99.90;;;;;;4994307;28;20179;-87
2021/03/02 08:43:06;;;;;;;6.13;3.37;;;3.80;99.90;;;;;;5010118;28;20276;-88
2021/03/02 08:45:37;;;;;;;8.23;5.93;;;3.80;99.90;;;;;;4992585;28;20214;-90
2021/03/02 08:48:21;;;;;;;16.30;5.13;;;3.80;99.90;;;;;;4993945;28;20231;-89
2021/03/02 08:50:49;;;;;;;10.70;7.10;;;3.90;99.90;;;;;;5004780;28;20357;-90
2021/03/02 08:53:28;;;;;;;10.17;4.93;;;3.90;99.90;;;;;;5008072;28;20265;-88
2021/03/02 08:55:55;;;;;;;9.00;6.57;;;3.90;99.90;;;;;;4970876;28;20222;-90
2021/03/02 08:58:32;;;;;;;4.97;3.27;;;4.00;99.90;;;;;;4970674;28;20191;-89
2021/03/02 09:01:00;;;;;;;3.13;3.03;;;3.90;99.90;;;;;;4995085;28;20229;-89
2021/03/02 09:03:26;;;;;;;5.67;3.67;;;3.90;99.90;;;;;;5029298;28;20222;-90
2021/03/02 09:06:24;;;;;;;12.67;4.67;;;4.00;99.90;;;;;;5012135;28;20635;-90
2021/03/02 09:09:13;;;;;;;7.83;5.20;;;3.90;99.90;;;;;;4977968;28;20270;-89
2021/03/02 09:11:49;;;;;;;6.13;4.03;;;3.90;99.90;;;;;;4984778;28;20230;-91
2021/03/02 09:14:35;;;;;;;8.23;4.80;;;3.90;99.90;;;;;;4989632;28;20682;-88
2021/03/02 09:17:02;;;;;;;11.90;7.37;;;4.00;99.90;;;;;;5007575;28;20245;-89
2021/03/02 09:19:30;;;;;;;8.47;3.23;;;4.10;99.90;;;;;;5004545;28;20201;-90
2021/03/02 09:22:11;;;;;;;5.33;3.80;;;4.00;99.90;;;;;;4981989;28;20199;-89
2021/03/02 09:24:38;;;;;;;14.57;7.47;;;3.90;99.90;;;;;;5018648;28;20222;-90
2021/03/02 09:27:13;;;;;;;7.17;6.50;;;4.00;99.90;;;;;;4986445;28;20226;-90
2021/03/02 09:29:44;;;;;;;9.33;6.33;;;4.00;99.90;;;;;;5009568;28;20229;-90
2021/03/02 09:32:14;;;;;;;5.63;2.73;;;4.20;99.90;;;;;;5000417;28;20269;-90
2021/03/02 09:34:45;;;;;;;8.87;4.77;;;4.30;99.90;;;;;;5008865;28;20738;-90
2021/03/02 09:37:13;;;;;;;6.67;5.93;;;4.20;99.90;;;;;;4988744;28;20676;-90
2021/03/02 09:39:41;;;;;;;4.70;3.17;;;4.40;99.90;;;;;;5009534;28;20742;-89
2021/03/02 09:42:20;;;;;;;6.50;4.50;;;4.40;99.90;;;;;;5022861;28;20207;-89
2021/03/02 09:44:52;;;;;;;8.63;7.57;;;4.10;99.90;;;;;;5018749;28;20218;-89
2021/03/02 09:47:24;;;;;;;5.90;4.57;;;4.10;99.90;;;;;;5010272;28;20289;-89
2021/03/02 09:50:04;;;;;;;10.23;4.50;;;4.20;99.90;;;;;;5007186;28;20235;-89
2021/03/02 09:52:31;;;;;;;5.93;3.30;;;4.20;99.90;;;;;;5018479;28;20186;-89
2021/03/02 09:55:09;;;;;;;6.13;4.47;;;4.20;99.90;;;;;;5025567;28;20203;-91
2021/03/02 09:58:14;;;;;;;24.47;6.07;;;4.30;99.90;;;;;;5021610;28;20280;-89
2021/03/02 10:00:49;;;;;;;3.50;3.23;;;4.50;99.90;;;;;;4988056;28;20219;-90
2021/03/02 10:03:26;;;;;;;6.33;4.70;;;4.70;99.90;;;;;;5004189;28;20218;-89
2021/03/02 10:05:52;;;;;;;7.43;3.67;;;4.40;99.90;;;;;;5003748;28;20252;-90
2021/03/02 10:08:37;;;;;;;7.40;4.73;;;4.40;99.90;;;;;;5008183;28;20772;-89
2021/03/02 10:11:21;;;;;;;6.70;3.70;;;4.70;99.90;;;;;;5005815;28;21324;-90
2021/03/02 10:13:55;;;;;;;6.57;4.40;;;4.70;99.90;;;;;;4995627;28;20358;-89
2021/03/02 10:16:35;;;;;;;13.57;6.23;;;4.70;99.90;;;;;;5009098;28;20178;-89
2021/03/02 10:19:05;;;;;;;8.20;5.80;;;4.80;99.90;;;;;;5005946;28;20605;-90
2021/03/02 10:21:43;;;;;;;8.90;6.20;;;4.90;99.90;;;;;;5014456;28;20212;-89
2021/03/02 10:24:09;;;;;;;7.97;5.87;;;4.70;99.90;;;;;;5018618;28;20240;-89
2021/03/02 10:26:38;;;;;;;13.03;7.40;;;4.70;99.90;;;;;;5009707;28;20238;-89
2021/03/02 10:29:07;;;;;;;10.77;6.67;;;4.70;99.90;;;;;;4990141;28;20735;-89
2021/03/02 10:31:34;;;;;;;6.33;5.17;;;5.00;99.90;;;;;;5000583;28;20207;-88
2021/03/02 10:34:01;;;;;;;7.73;5.23;;;5.00;99.90;;;;;;5019069;28;20233;-88
2021/03/02 10:36:29;;;;;;;8.03;3.57;;;5.10;99.90;;;;;;4985556;28;20302;-89
2021/03/02 10:38:57;;;;;;;11.93;5.80;;;5.20;99.90;;;;;;4996524;28;20231;-89
2021/03/02 10:41:25;;;;;;;13.70;6.50;;;5.30;99.90;;;;;;5020266;28;20206;-89
2021/03/02 10:43:52;;;;;;;16.10;5.80;;;5.50;99.90;;;;;;5004686;28;21054;-90
2021/03/02 10:46:20;;;;;;;8.53;5.53;;;5.60;99.90;;;;;;5019967;28;20193;-89
2021/03/02 10:48:46;;;;;;;8.43;6.93;;;5.40;99.90;;;;;;5018954;28;20221;-88
2021/03/02 10:51:13;;;;;;;9.63;7.93;;;5.60;99.90;;;;;;5001224;28;20234;-88
2021/03/02 10:53:39;;;;;;;9.63;6.60;;;5.80;99.90;;;;;;5027465;28;20271;-89
2021/03/02 10:56:06;;;;;;;18.40;7.83;;;5.90;99.90;;;;;;5028485;28;20226;-90
2021/03/02 10:58:32;;;;;;;16.90;8.60;;;6.20;99.90;;;;;;5005781;28;20190;-91
2021/03/02 11:01:00;;;;;;;12.03;6.27;;;6.30;99.90;;;;;;4984524;28;20237;-90
2021/03/02 11:03:29;;;;;;;13.10;9.13;;;6.60;99.90;;;;;;4977183;28;20272;-90
2021/03/02 11:05:56;;;;;;;10.77;7.20;;;6.80;99.90;;;;;;5001453;28;20219;-89
2021/03/02 11:08:22;;;;;;;11.63;7.03;;;7.30;99.90;;;;;;4994201;28;20651;-90
2021/03/02 11:10:49;;;;;;;12.60;8.10;;;7.10;99.90;;;;;;5002692;28;20271;-90
2021/03/02 11:13:16;;;;;;;14.73;7.67;;;7.50;99.90;;;;;;5010165;28;20814;-89
2021/03/02 11:15:42;;;;;;;11.10;6.80;;;7.60;99.90;;;;;;5007404;28;20221;-89
2021/03/02 11:18:09;;;;;;;13.57;8.37;;;7.70;99.90;;;;;;5015015;28;20238;-90
2021/03/02 11:20:39;;;;;;;9.83;7.17;;;7.60;99.90;;;;;;4979015;28;20221;-89
2021/03/02 11:23:05;;;;;;;16.57;7.10;;;7.60;99.90;;;;;;4993666;28;20218;-89
2021/03/02 11:25:31;;;;;;;7.30;6.07;;;7.40;99.90;;;;;;4985233;28;20274;-89
2021/03/02 11:27:57;;;;;;;11.53;5.93;;;7.60;99.90;;;;;;4971540;28;20266;-89
2021/03/02 11:30:24;;;;;;;14.17;8.37;;;7.50;99.90;;;;;;4997858;28;20806;-89
2021/03/02 11:32:50;;;;;;;10.80;7.43;;;7.80;99.90;;;;;;4973575;28;20222;-90
2021/03/02 11:35:16;;;;;;;12.67;6.87;;;8.30;99.90;;;;;;4997133;28;20271;-91
2021/03/02 11:37:46;;;;;;;15.53;7.97;;;8.80;99.90;;;;;;5008774;28;20272;-89
2021/03/02 11:40:19;;;;;;;15.30;7.80;;;8.90;99.90;;;;;;5024225;28;20259;-88
2021/03/02 11:42:46;;;;;;;14.40;7.73;;;8.80;99.90;;;;;;5000126;28;20265;-89
2021/03/02 11:45:12;;;;;;;14.97;7.60;;;9.10;99.90;;;;;;4987213;28;20338;-90
2021/03/02 11:47:38;;;;;;;13.70;8.13;;;9.20;99.90;;;;;;4981404;28;20219;-90
2021/03/02 11:50:06;;;;;;;8.93;6.13;;;9.40;99.90;;;;;;4987475;28;20366;-89
2021/03/02 11:52:32;;;;;;;15.57;7.57;;;9.10;99.90;;;;;;4994787;28;20186;-89
2021/03/02 11:54:58;;;;;;;10.97;6.83;;;8.70;99.90;;;;;;4992936;28;20199;-89
2021/03/02 11:57:24;;;;;;;13.80;7.37;;;8.90;99.90;;;;;;4994990;28;20211;-89
2021/03/02 11:59:51;;;;;;;17.17;8.70;;;8.80;99.90;;;;;;5010229;28;20225;-88
2021/03/02 12:02:17;;;;;;;13.80;7.47;;;8.60;99.90;;;;;;5009681;28;20222;-90
2021/03/02 12:04:43;;;;;;;12.27;8.27;;;8.80;99.90;;;;;;4997274;28;20647;-88
2021/03/02 12:07:10;;;;;;;15.43;7.03;;;8.90;99.90;;;;;;4995655;28;20201;-90
2021/03/02 12:09:37;;;;;;;13.27;7.07;;;9.10;99.90;;;;;;5005202;28;20365;-89
2021/03/02 12:12:04;;;;;;;14.00;6.90;;;9.50;99.90;;;;;;5009665;28;20218;-90
2021/03/02 12:14:30;;;;;;;14.50;7.30;;;9.40;99.90;;;;;;5019871;28;20215;-90
2021/03/02 12:16:56;;;;;;;16.97;9.77;;;9.50;99.90;;;;;;5008860;28;20698;-89
2021/03/02 12:19:22;;;;;;;11.63;8.27;;;9.00;99.90;;;;;;4995934;28;20663;-88
2021/03/02 12:21:48;;;;;;;27.83;8.33;;;9.30;99.90;;;;;;4991375;28;20814;-90
2021/03/02 12:24:14;;;;;;;16.33;8.37;;;9.50;99.90;;;;;;4994587;28;20523;-88
2021/03/02 12:26:40;;;;;;;15.70;8.27;;;9.20;99.90;;;;;;5009183;28;20221;-89
2021/03/02 12:29:07;;;;;;;12.50;7.90;;;9.20;99.90;;;;;;4992186;28;20747;-89
2021/03/02 12:31:33;;;;;;;14.57;7.20;;;9.10;99.90;;;;;;4986205;28;20182;-88
2021/03/02 12:33:59;;;;;;;19.37;9.47;;;9.20;99.90;;;;;;5010795;28;20198;-88
2021/03/02 12:36:25;;;;;;;24.07;8.67;;;9.00;99.90;;;;;;4990672;28;21079;-89
2021/03/02 12:38:51;;;;;;;12.23;6.57;;;9.10;99.90;;;;;;4985672;28;20221;-88
2021/03/02 12:41:17;;;;;;;17.37;8.23;;;9.10;99.90;;;;;;5009504;28;20214;-89
2021/03/02 12:43:42;;;;;;;20.43;8.43;;;9.00;99.90;;;;;;4987382;28;20630;-89
2021/03/02 12:46:08;;;;;;;14.50;8.90;;;9.00;99.90;;;;;;4997044;28;20672;-89
2021/03/02 12:48:34;;;;;;;13.93;8.10;;;9.10;99.90;;;;;;4995089;28;20229;-89
2021/03/02 12:51:00;;;;;;;19.67;7.23;;;9.50;99.90;;;;;;4962891;28;20228;-90
2021/03/02 12:53:26;;;;;;;11.97;6.53;;;9.50;99.90;;;;;;4961310;28;20299;-89
2021/03/02 12:55:52;;;;;;;12.63;7.63;;;9.30;99.90;;;;;;4970766;28;20233;-89
2021/03/02 12:58:18;;;;;;;16.10;8.10;;;9.40;99.90;;;;;;4977822;28;20742;-90
2021/03/02 13:00:43;;;;;;;10.40;6.90;;;9.30;99.90;;;;;;4992168;28;20668;-89
2021/03/02 13:03:13;;;;;;;19.43;8.33;;;9.20;99.90;;;;;;4988350;28;20208;-89
2021/03/02 13:05:39;;;;;;;12.70;6.63;;;9.30;99.90;;;;;;5007840;28;20340;-89